Time;durP1;ratioP1;P1;durP2;ratioP2;P2;SDS_P1;SDS_P2;PMS_P1;PMS_P2;Temp;Humidity;BMP_temperature;BMP_pressure;BME280_temperature;BME280_humidity;BME280_pressure;Samples;Min_cycle;Max_cycle;Signal;HPM_P1;HPM_P2
2021/05/20 00:02:21;;;;;;;1.60;1.00;;;12.50;84.10;;;;;;6197334;23;20493;-88
2021/05/20 00:07:38;;;;;;;2.03;1.10;;;12.50;85.40;;;;;;6188720;23;20421;-88
2021/05/20 00:16:36;;;;;;;1.97;1.47;;;12.50;85.30;;;;;;6078409;23;20407;-88
2021/05/20 00:19:05;;;;;;;2.10;1.90;;;12.50;85.20;;;;;;6206593;23;20462;-89
2021/05/20 00:21:32;;;;;;;1.50;1.00;;;12.50;85.60;;;;;;6215106;22;20390;-88
2021/05/20 00:24:04;;;;;;;1.40;1.30;;;12.50;86.20;;;;;;6213245;22;20499;-88
2021/05/20 00:26:33;;;;;;;1.80;1.00;;;12.50;86.00;;;;;;6214183;22;20405;-88
2021/05/20 00:29:01;;;;;;;2.33;1.20;;;12.50;86.20;;;;;;6210154;22;20434;-89
2021/05/20 00:31:57;;;;;;;1.53;1.10;;;12.50;86.70;;;;;;6194227;23;20402;-88
2021/05/20 00:34:27;;;;;;;1.47;1.00;;;12.50;86.30;;;;;;6190602;23;20371;-88
2021/05/20 00:36:59;;;;;;;2.93;0.97;;;12.50;86.50;;;;;;6191950;23;20408;-89
2021/05/20 00:39:25;;;;;;;1.70;1.13;;;12.40;86.70;;;;;;6190319;23;20473;-88
2021/05/20 00:41:52;;;;;;;2.70;1.43;;;12.40;87.20;;;;;;6191379;23;20414;-89
2021/05/20 00:44:19;;;;;;;1.33;1.00;;;12.40;87.40;;;;;;6191367;23;21022;-88
2021/05/20 00:46:45;;;;;;;2.50;1.13;;;12.30;87.50;;;;;;6190107;23;20409;-88
2021/05/20 00:49:11;;;;;;;1.97;1.23;;;12.20;88.00;;;;;;6187755;23;20431;-88
2021/05/20 00:51:40;;;;;;;2.70;1.40;;;12.20;88.30;;;;;;6189729;23;20407;-88
2021/05/20 00:54:07;;;;;;;3.10;1.73;;;12.20;89.10;;;;;;6188025;23;20418;-89
2021/05/20 00:56:35;;;;;;;2.17;1.50;;;12.20;89.60;;;;;;6188749;23;20424;-89
2021/05/20 00:59:03;;;;;;;1.87;1.13;;;12.10;89.80;;;;;;6189191;23;20452;-88
2021/05/20 01:01:31;;;;;;;2.20;1.10;;;12.10;90.10;;;;;;6206325;23;20415;-88
2021/05/20 01:03:57;;;;;;;3.70;1.60;;;12.10;90.30;;;;;;6210693;23;20458;-88
2021/05/20 01:06:27;;;;;;;1.70;1.50;;;12.10;90.40;;;;;;6195680;23;20750;-89
2021/05/20 01:08:56;;;;;;;2.13;0.90;;;12.00;90.70;;;;;;6188116;23;20414;-88
2021/05/20 01:11:22;;;;;;;1.50;1.13;;;12.00;90.50;;;;;;6187601;23;20425;-88
2021/05/20 01:13:49;;;;;;;2.87;1.73;;;12.00;90.40;;;;;;6190551;23;20415;-88
2021/05/20 01:16:15;;;;;;;2.70;1.27;;;12.10;90.60;;;;;;6188910;23;20395;-88
2021/05/20 01:18:42;;;;;;;2.60;1.90;;;12.10;90.60;;;;;;6189748;23;20453;-89
2021/05/20 01:21:09;;;;;;;1.87;1.30;;;12.10;90.70;;;;;;6186917;23;20422;-89
2021/05/20 01:23:35;;;;;;;1.30;1.17;;;12.10;90.70;;;;;;6187320;23;20532;-89
2021/05/20 01:26:03;;;;;;;1.27;1.17;;;12.10;90.50;;;;;;6187484;23;20391;-88
2021/05/20 01:28:33;;;;;;;2.80;1.30;;;12.10;90.40;;;;;;6186672;23;20451;-89
2021/05/20 01:30:59;;;;;;;1.87;1.30;;;12.10;90.50;;;;;;6186394;23;20418;-88
2021/05/20 01:33:26;;;;;;;1.40;1.00;;;12.10;90.80;;;;;;6186029;23;20412;-88
2021/05/20 01:35:52;;;;;;;2.23;1.10;;;12.10;90.80;;;;;;6187159;23;20417;-88
2021/05/20 01:41:03;;;;;;;1.70;1.20;;;12.10;90.80;;;;;;6182857;23;20485;-89
2021/05/20 01:43:31;;;;;;;2.80;1.23;;;12.10;90.80;;;;;;6187255;23;20412;-88
2021/05/20 01:45:58;;;;;;;0.87;0.80;;;12.10;90.80;;;;;;6190264;23;20477;-88
2021/05/20 01:48:25;;;;;;;2.63;1.07;;;12.10;90.70;;;;;;6187117;23;20410;-88
2021/05/20 01:50:52;;;;;;;2.10;1.27;;;12.00;90.60;;;;;;6192538;23;20421;-87
2021/05/20 01:53:19;;;;;;;2.07;1.23;;;11.90;91.20;;;;;;6187453;23;20896;-88
2021/05/20 01:55:48;;;;;;;2.73;1.47;;;11.80;91.40;;;;;;6186773;23;20446;-88
2021/05/20 01:58:15;;;;;;;1.40;1.13;;;11.80;91.50;;;;;;6187529;23;20923;-88
2021/05/20 02:00:41;;;;;;;3.93;1.20;;;11.70;92.00;;;;;;6187466;23;20452;-88
2021/05/20 02:03:08;;;;;;;1.33;1.10;;;11.60;92.30;;;;;;6202468;23;20797;-88
2021/05/20 02:05:34;;;;;;;2.00;1.20;;;11.50;92.60;;;;;;6187466;23;20973;-88
2021/05/20 02:08:00;;;;;;;1.40;1.10;;;11.50;93.00;;;;;;6188672;23;20470;-87
2021/05/20 02:10:28;;;;;;;2.40;1.43;;;11.50;93.10;;;;;;6191831;23;20422;-87
2021/05/20 02:12:54;;;;;;;3.13;1.20;;;11.60;93.30;;;;;;6188391;23;20881;-88
2021/05/20 02:15:20;;;;;;;1.37;1.23;;;11.60;93.20;;;;;;6187311;23;20421;-88
2021/05/20 02:17:47;;;;;;;1.67;1.20;;;11.70;93.40;;;;;;6193998;23;20398;-87
2021/05/20 02:20:15;;;;;;;2.00;1.40;;;11.80;93.40;;;;;;6213888;22;20453;-88
2021/05/20 02:22:41;;;;;;;2.93;1.17;;;11.70;93.30;;;;;;6213080;22;20412;-88
2021/05/20 02:25:09;;;;;;;1.40;1.20;;;11.80;93.40;;;;;;6212402;22;20397;-88
2021/05/20 02:27:36;;;;;;;1.90;1.27;;;11.80;93.70;;;;;;6205324;23;20425;-88
2021/05/20 02:30:04;;;;;;;3.37;1.70;;;11.80;93.80;;;;;;6212026;23;20436;-88
2021/05/20 02:32:30;;;;;;;3.20;1.50;;;11.80;93.80;;;;;;6211439;23;20449;-88
2021/05/20 02:34:57;;;;;;;1.97;1.20;;;11.80;93.80;;;;;;6210644;23;20405;-88
2021/05/20 02:37:23;;;;;;;2.10;1.33;;;11.80;94.10;;;;;;6209958;22;20464;-88
2021/05/20 02:39:49;;;;;;;1.60;1.47;;;11.70;94.50;;;;;;6205072;22;20446;-88
2021/05/20 02:42:16;;;;;;;1.80;1.10;;;11.70;94.40;;;;;;6197188;23;20418;-88
2021/05/20 02:44:43;;;;;;;1.50;1.37;;;11.70;94.30;;;;;;6191324;23;20407;-88
2021/05/20 02:47:09;;;;;;;3.07;1.40;;;11.70;94.30;;;;;;6206544;23;20418;-88
2021/05/20 02:49:36;;;;;;;1.83;1.30;;;11.70;94.50;;;;;;6204988;23;20431;-86
2021/05/20 02:52:02;;;;;;;1.20;1.10;;;11.60;94.50;;;;;;6193244;23;20417;-86
2021/05/20 02:54:28;;;;;;;3.00;1.10;;;11.60;94.90;;;;;;6193024;23;20406;-86
2021/05/20 02:56:55;;;;;;;3.67;1.50;;;11.60;94.40;;;;;;6196759;23;20409;-87
2021/05/20 02:59:21;;;;;;;3.00;1.30;;;11.50;94.40;;;;;;6186434;23;20446;-87
2021/05/20 03:01:49;;;;;;;3.20;1.37;;;11.50;94.50;;;;;;6186240;23;20429;-88
2021/05/20 03:04:16;;;;;;;2.07;1.90;;;11.50;94.50;;;;;;6185680;23;20414;-87
2021/05/20 03:06:42;;;;;;;2.03;1.63;;;11.50;94.70;;;;;;6185485;23;20394;-87
2021/05/20 03:09:10;;;;;;;2.67;1.50;;;11.50;95.10;;;;;;6185459;23;20414;-87
2021/05/20 03:11:36;;;;;;;3.20;1.23;;;11.40;94.70;;;;;;6185167;23;20476;-87
2021/05/20 03:14:03;;;;;;;2.40;1.50;;;11.40;95.00;;;;;;6185581;23;20414;-89
2021/05/20 03:16:30;;;;;;;1.90;1.23;;;11.40;95.00;;;;;;6186392;23;20773;-88
2021/05/20 03:18:57;;;;;;;2.93;1.60;;;11.40;95.40;;;;;;6185448;23;20461;-88
2021/05/20 03:21:26;;;;;;;2.80;1.20;;;11.50;95.30;;;;;;6187602;23;20881;-88
2021/05/20 03:23:53;;;;;;;3.27;1.63;;;11.40;95.00;;;;;;6189389;23;20397;-89
2021/05/20 03:26:20;;;;;;;1.53;1.10;;;11.40;95.00;;;;;;6187857;23;20420;-88
2021/05/20 03:28:47;;;;;;;1.43;1.10;;;11.40;95.30;;;;;;6189998;23;20505;-88
2021/05/20 03:31:13;;;;;;;1.77;1.30;;;11.40;95.50;;;;;;6191201;23;20877;-89
2021/05/20 03:33:41;;;;;;;4.27;1.43;;;11.40;95.50;;;;;;6189957;23;20497;-88
2021/05/20 03:36:08;;;;;;;2.67;1.90;;;11.40;95.70;;;;;;6195603;23;20411;-88
2021/05/20 03:38:35;;;;;;;4.07;1.30;;;11.40;95.60;;;;;;6187857;23;20440;-88
2021/05/20 03:41:01;;;;;;;4.13;1.17;;;11.30;95.90;;;;;;6187541;23;20454;-89
2021/05/20 03:43:30;;;;;;;2.57;1.40;;;11.40;95.80;;;;;;6188183;23;20463;-88
2021/05/20 03:45:57;;;;;;;1.77;1.57;;;11.40;95.90;;;;;;6189120;23;20490;-88
2021/05/20 03:48:24;;;;;;;2.30;1.03;;;11.40;96.30;;;;;;6190962;23;20889;-89
2021/05/20 03:50:51;;;;;;;2.33;1.50;;;11.40;96.00;;;;;;6207489;22;20417;-89
2021/05/20 03:53:18;;;;;;;2.17;1.53;;;11.50;95.90;;;;;;6215800;22;20441;-88
2021/05/20 03:55:46;;;;;;;1.30;0.90;;;11.40;95.70;;;;;;6214442;22;20416;-88
2021/05/20 03:58:13;;;;;;;1.80;1.30;;;11.40;96.10;;;;;;6215451;22;20396;-88
2021/05/20 04:00:39;;;;;;;1.40;1.30;;;11.40;96.80;;;;;;6214093;22;20484;-88
2021/05/20 04:03:06;;;;;;;3.83;1.50;;;11.40;97.40;;;;;;6204895;23;20409;-88
2021/05/20 04:05:32;;;;;;;2.10;1.53;;;11.30;98.00;;;;;;6214810;22;20401;-87
2021/05/20 04:07:58;;;;;;;2.80;1.40;;;11.30;98.90;;;;;;6214728;22;20398;-88
2021/05/20 04:10:25;;;;;;;1.67;1.57;;;11.30;98.70;;;;;;6214759;22;20441;-88
2021/05/20 04:12:52;;;;;;;3.40;1.30;;;11.30;99.20;;;;;;6196117;23;20394;-87
2021/05/20 04:15:18;;;;;;;1.70;1.40;;;11.30;99.60;;;;;;6210490;23;20429;-87
2021/05/20 04:17:45;;;;;;;3.60;1.30;;;11.30;99.20;;;;;;6214710;22;20435;-87
2021/05/20 04:20:13;;;;;;;2.70;1.50;;;11.30;99.00;;;;;;6209680;23;20944;-88
2021/05/20 04:22:40;;;;;;;1.63;1.23;;;11.30;99.40;;;;;;6199419;23;20532;-88
2021/05/20 04:25:07;;;;;;;6.50;1.80;;;11.30;99.50;;;;;;6197458;23;20412;-89
2021/05/20 04:27:34;;;;;;;2.00;1.33;;;11.40;99.40;;;;;;6209602;23;20489;-88
2021/05/20 04:30:00;;;;;;;2.60;1.80;;;11.40;99.90;;;;;;6191277;23;20418;-88
2021/05/20 04:32:27;;;;;;;1.40;0.90;;;11.50;99.90;;;;;;6193332;23;20402;-88
2021/05/20 04:34:53;;;;;;;2.77;1.67;;;11.60;99.90;;;;;;6190387;23;20528;-89
2021/05/20 04:37:19;;;;;;;2.27;1.20;;;11.60;99.70;;;;;;6188845;23;20406;-87
2021/05/20 04:39:51;;;;;;;3.40;1.77;;;11.60;99.60;;;;;;6190314;23;20442;-89
2021/05/20 04:42:20;;;;;;;2.80;1.20;;;11.60;99.20;;;;;;6199142;23;20397;-87
2021/05/20 04:44:48;;;;;;;2.67;1.30;;;11.50;99.20;;;;;;6213352;22;20480;-88
2021/05/20 04:47:16;;;;;;;2.00;1.00;;;11.40;98.90;;;;;;6200312;23;20400;-87
2021/05/20 04:49:44;;;;;;;1.57;0.97;;;11.40;98.60;;;;;;6210738;22;20525;-89
2021/05/20 04:52:14;;;;;;;1.60;1.07;;;11.40;98.60;;;;;;6195951;23;20410;-88
2021/05/20 04:54:40;;;;;;;2.40;1.40;;;11.40;98.80;;;;;;6194475;23;20406;-88
2021/05/20 04:57:09;;;;;;;3.33;1.00;;;11.50;98.70;;;;;;6194795;23;20389;-88
2021/05/20 04:59:36;;;;;;;3.73;1.10;;;11.60;98.20;;;;;;6193054;23;20536;-89
2021/05/20 05:02:03;;;;;;;1.00;0.90;;;11.70;98.40;;;;;;6192701;23;20421;-88
2021/05/20 05:04:32;;;;;;;1.80;1.10;;;11.90;98.00;;;;;;6211636;22;20390;-88
2021/05/20 05:06:59;;;;;;;2.83;1.20;;;12.10;97.70;;;;;;6212718;22;20421;-88
2021/05/20 05:09:25;;;;;;;2.10;1.83;;;12.20;97.40;;;;;;6197058;23;20422;-88
2021/05/20 05:11:54;;;;;;;1.37;1.27;;;12.30;97.40;;;;;;6213984;22;20392;-88
2021/05/20 05:14:20;;;;;;;2.13;1.10;;;12.40;97.20;;;;;;6191550;23;20394;-88
2021/05/20 05:16:46;;;;;;;2.07;1.47;;;12.50;96.20;;;;;;6188295;23;20864;-88
2021/05/20 05:19:16;;;;;;;1.63;1.03;;;12.50;96.20;;;;;;6188164;23;20442;-88
2021/05/20 05:21:43;;;;;;;1.77;1.30;;;12.40;96.50;;;;;;6189598;23;20483;-88
2021/05/20 05:24:10;;;;;;;1.57;1.30;;;12.40;96.60;;;;;;6190074;23;20480;-88
2021/05/20 05:26:38;;;;;;;1.43;0.90;;;12.50;96.40;;;;;;6208844;23;20454;-87
2021/05/20 05:29:04;;;;;;;1.83;1.70;;;12.50;96.50;;;;;;6204318;23;20438;-88
2021/05/20 05:31:36;;;;;;;1.67;1.33;;;12.50;96.70;;;;;;6192031;23;20563;-88
2021/05/20 05:34:05;;;;;;;2.03;1.83;;;12.70;96.50;;;;;;6190144;23;20474;-89
2021/05/20 05:36:50;;;;;;;7.37;1.80;;;12.70;96.50;;;;;;6202268;23;20428;-89
2021/05/20 05:39:22;;;;;;;4.30;1.00;;;12.80;96.20;;;;;;6194781;23;20443;-88
2021/05/20 05:41:52;;;;;;;1.60;1.20;;;13.00;95.80;;;;;;6196427;23;20464;-88
2021/05/20 05:44:21;;;;;;;2.40;1.80;;;13.10;95.60;;;;;;6202292;23;20395;-89
2021/05/20 05:46:47;;;;;;;1.50;1.40;;;13.10;95.30;;;;;;6213117;22;20408;-88
2021/05/20 05:49:15;;;;;;;1.73;0.97;;;13.10;94.90;;;;;;6194643;23;20433;-88
2021/05/20 05:51:50;;;;;;;4.13;3.73;;;13.00;94.60;;;;;;6201281;23;20410;-89
2021/05/20 05:54:17;;;;;;;1.23;1.00;;;13.00;94.80;;;;;;6207361;23;20432;-88
2021/05/20 05:56:48;;;;;;;2.00;1.63;;;13.10;94.80;;;;;;6201517;23;20431;-89
2021/05/20 05:59:14;;;;;;;1.03;0.93;;;13.10;94.50;;;;;;6198418;23;20449;-88
2021/05/20 06:01:42;;;;;;;1.50;0.90;;;13.10;94.50;;;;;;6193715;23;20407;-89
2021/05/20 06:04:30;;;;;;;2.77;1.87;;;13.10;94.30;;;;;;6193542;23;20437;-88
2021/05/20 06:06:57;;;;;;;1.70;1.03;;;13.10;94.60;;;;;;6199695;23;20402;-88
2021/05/20 06:09:25;;;;;;;1.50;1.20;;;13.20;94.60;;;;;;6199689;23;20441;-88
2021/05/20 06:11:52;;;;;;;3.10;1.97;;;13.40;94.30;;;;;;6194097;22;20458;-89
2021/05/20 06:14:18;;;;;;;2.80;1.27;;;13.60;94.00;;;;;;6189573;23;20405;-88
2021/05/20 06:16:45;;;;;;;1.00;0.73;;;14.00;93.80;;;;;;6203844;23;20422;-87
2021/05/20 06:19:12;;;;;;;3.93;1.37;;;14.10;93.40;;;;;;6211481;22;20437;-88
2021/05/20 06:21:40;;;;;;;2.50;1.20;;;14.10;93.00;;;;;;6192120;23;20707;-88
2021/05/20 06:24:07;;;;;;;3.53;1.13;;;14.30;92.80;;;;;;6191701;23;20409;-89
2021/05/20 06:26:40;;;;;;;4.87;1.30;;;14.30;92.50;;;;;;6190572;23;20410;-89
2021/05/20 06:29:19;;;;;;;3.00;1.60;;;14.20;92.60;;;;;;6189048;23;20425;-88
2021/05/20 06:34:47;;;;;;;2.90;1.30;;;14.30;92.20;;;;;;6142549;23;20452;-88
2021/05/20 06:37:33;;;;;;;1.87;1.63;;;14.50;92.10;;;;;;6194182;23;20498;-87
2021/05/20 06:40:05;;;;;;;1.93;1.10;;;14.60;91.70;;;;;;6188609;23;20453;-88
2021/05/20 06:42:35;;;;;;;1.97;1.50;;;14.60;91.60;;;;;;6187802;23;20411;-87
2021/05/20 06:45:01;;;;;;;1.60;1.50;;;14.70;91.50;;;;;;6189413;23;20410;-88
2021/05/20 06:47:30;;;;;;;1.50;1.37;;;14.70;91.30;;;;;;6187177;23;20468;-87
2021/05/20 06:49:57;;;;;;;2.13;1.93;;;14.60;91.00;;;;;;6186477;23;20444;-88
2021/05/20 06:52:23;;;;;;;2.53;1.60;;;14.60;91.30;;;;;;6186651;23;20746;-88
2021/05/20 06:54:57;;;;;;;3.10;1.67;;;14.50;91.10;;;;;;6189128;23;20409;-88
2021/05/20 06:57:30;;;;;;;1.40;1.30;;;14.50;91.40;;;;;;6199077;23;20385;-86
2021/05/20 06:59:58;;;;;;;2.83;2.10;;;14.80;91.60;;;;;;6208871;22;20433;-88
2021/05/20 07:02:25;;;;;;;2.47;1.60;;;15.10;91.00;;;;;;6203528;23;20429;-86
2021/05/20 07:04:52;;;;;;;2.10;1.63;;;15.90;90.70;;;;;;6211846;22;20390;-87
2021/05/20 07:07:19;;;;;;;2.13;1.30;;;16.50;87.00;;;;;;6209727;23;20406;-87
2021/05/20 07:09:49;;;;;;;3.03;1.93;;;16.60;85.70;;;;;;6206842;23;20450;-88
2021/05/20 07:15:42;;;;;;;2.40;1.60;;;16.60;84.40;;;;;;6168876;23;20381;-87
2021/05/20 07:18:19;;;;;;;3.33;2.50;;;16.40;83.40;;;;;;6193229;23;20408;-88
2021/05/20 07:20:49;;;;;;;3.37;1.87;;;16.20;83.70;;;;;;6192125;23;20525;-88
2021/05/20 07:23:39;;;;;;;2.00;1.80;;;16.00;84.90;;;;;;6191800;23;20504;-88
2021/05/20 07:26:21;;;;;;;2.53;1.47;;;15.90;85.80;;;;;;6169147;23;20410;-87
2021/05/20 07:28:47;;;;;;;2.53;1.40;;;15.70;85.70;;;;;;6190086;23;20928;-89
2021/05/20 07:31:17;;;;;;;3.50;1.80;;;15.70;86.20;;;;;;6188242;23;20497;-88
2021/05/20 07:33:51;;;;;;;2.13;1.67;;;15.80;86.60;;;;;;6204001;23;20388;-89
2021/05/20 07:36:17;;;;;;;2.77;1.60;;;16.00;86.40;;;;;;6201925;23;20422;-87
2021/05/20 07:39:01;;;;;;;1.63;1.17;;;16.20;83.80;;;;;;6210932;22;20437;-93
2021/05/20 07:48:19;;;;;;;1.90;1.23;;;17.20;80.90;;;;;;6050886;23;20421;-91
2021/05/20 07:50:45;;;;;;;4.40;2.47;;;17.70;80.40;;;;;;6071290;23;20426;-91
2021/05/20 07:53:15;;;;;;;3.93;2.03;;;18.20;78.70;;;;;;6180137;22;20417;-92
2021/05/20 07:55:47;;;;;;;2.17;1.60;;;18.50;76.90;;;;;;6213738;22;20396;-92
2021/05/20 07:58:14;;;;;;;3.20;1.90;;;18.70;76.00;;;;;;6201127;23;20390;-90
2021/05/20 08:00:41;;;;;;;1.50;1.00;;;18.80;74.90;;;;;;6213972;22;20441;-86
2021/05/20 08:03:17;;;;;;;1.17;1.07;;;19.40;72.40;;;;;;6194807;23;20412;-87
2021/05/20 08:05:51;;;;;;;1.30;1.13;;;19.90;71.50;;;;;;6192054;23;20423;-86
2021/05/20 08:08:22;;;;;;;2.17;1.47;;;19.50;69.70;;;;;;6190868;23;20752;-86
2021/05/20 08:10:52;;;;;;;1.37;1.27;;;19.10;70.10;;;;;;6190893;23;20865;-86
2021/05/20 08:13:18;;;;;;;2.67;1.63;;;18.60;71.20;;;;;;6191065;23;20900;-87
2021/05/20 08:15:45;;;;;;;1.47;1.30;;;18.20;72.40;;;;;;6188766;23;20403;-86
2021/05/20 08:18:11;;;;;;;2.60;1.80;;;18.10;74.30;;;;;;6188741;23;20432;-86
2021/05/20 08:20:38;;;;;;;2.67;1.30;;;18.00;74.50;;;;;;6203324;23;20440;-86
2021/05/20 08:23:05;;;;;;;1.20;1.10;;;18.30;75.20;;;;;;6213727;23;20418;-86
2021/05/20 08:25:31;;;;;;;1.47;1.27;;;19.70;72.90;;;;;;6198360;23;20410;-87
2021/05/20 08:27:57;;;;;;;1.40;1.10;;;20.60;66.60;;;;;;6190843;23;20434;-83
2021/05/20 08:30:24;;;;;;;2.40;0.97;;;20.10;66.10;;;;;;6190963;23;20427;-87
2021/05/20 08:32:50;;;;;;;4.50;3.73;;;19.70;67.00;;;;;;6196602;23;20402;-87
2021/05/20 08:35:17;;;;;;;2.10;1.70;;;19.40;68.40;;;;;;6203205;23;20381;-86
2021/05/20 08:37:44;;;;;;;3.10;1.60;;;19.00;69.10;;;;;;6189775;23;20797;-87
2021/05/20 08:40:13;;;;;;;1.43;1.33;;;18.50;70.90;;;;;;6186715;23;20464;-87
2021/05/20 08:42:40;;;;;;;2.40;1.40;;;17.90;72.30;;;;;;6187230;23;20422;-87
2021/05/20 08:45:18;;;;;;;1.33;1.23;;;17.70;72.60;;;;;;6187832;23;20771;-87
2021/05/20 08:47:47;;;;;;;2.50;1.47;;;17.30;73.70;;;;;;6197015;23;20468;-87
2021/05/20 08:50:16;;;;;;;2.57;1.43;;;17.30;75.40;;;;;;6189928;23;20940;-87
2021/05/20 08:52:44;;;;;;;1.83;1.47;;;17.20;75.80;;;;;;6188111;23;20413;-87
2021/05/20 08:55:19;;;;;;;2.40;1.30;;;17.20;76.40;;;;;;6188160;23;20371;-87
2021/05/20 08:58:01;;;;;;;2.90;1.27;;;17.30;76.10;;;;;;6188136;23;20466;-87
2021/05/20 09:00:36;;;;;;;3.40;2.90;;;17.80;75.80;;;;;;6192262;23;20448;-87
2021/05/20 09:03:07;;;;;;;4.60;2.80;;;18.10;73.70;;;;;;6189387;23;20424;-88
2021/05/20 09:05:35;;;;;;;1.70;1.60;;;18.60;71.20;;;;;;6191041;23;21101;-88
2021/05/20 09:08:05;;;;;;;1.73;1.63;;;19.10;69.10;;;;;;6189942;23;20896;-89
2021/05/20 09:10:34;;;;;;;3.07;2.50;;;20.50;66.60;;;;;;6188740;23;20485;-89
2021/05/20 09:13:02;;;;;;;4.33;1.47;;;21.20;62.90;;;;;;6201743;23;20435;-88
2021/05/20 09:15:35;;;;;;;2.20;1.30;;;22.60;60.40;;;;;;6209441;23;20386;-89
2021/05/20 09:18:14;;;;;;;1.73;1.10;;;24.00;57.40;;;;;;6205422;23;20426;-89
2021/05/20 09:20:45;;;;;;;4.60;2.07;;;24.10;55.20;;;;;;6201276;23;20443;-88
2021/05/20 09:23:14;;;;;;;3.00;2.13;;;24.10;55.10;;;;;;6202055;23;20416;-89
2021/05/20 09:25:43;;;;;;;2.20;1.23;;;24.70;53.10;;;;;;6189922;23;20423;-89
2021/05/20 09:28:12;;;;;;;1.93;1.40;;;26.10;51.70;;;;;;6189770;23;20424;-87
2021/05/20 09:30:40;;;;;;;1.80;1.17;;;27.60;47.20;;;;;;6190708;23;20476;-87
2021/05/20 09:33:11;;;;;;;2.03;1.10;;;28.40;46.00;;;;;;6194167;23;20409;-87
2021/05/20 09:35:42;;;;;;;2.87;1.90;;;27.50;44.80;;;;;;6209432;23;20416;-89
2021/05/20 09:55:55;;;;;;;1.60;1.33;;;19.80;57.70;;;;;;6034513;23;20398;-88
2021/05/20 12:13:10;;;;;;;2.63;0.77;;;18.90;56.20;;;;;;6180672;23;20444;-88
2021/05/20 12:16:15;;;;;;;1.57;0.97;;;19.30;54.60;;;;;;6186316;23;20420;-88
2021/05/20 12:31:31;;;;;;;3.50;0.90;;;26.60;41.30;;;;;;6185517;23;20416;-88
2021/05/20 12:38:52;;;;;;;1.40;1.13;;;23.40;44.70;;;;;;6115643;23;20398;-89
2021/05/20 12:45:12;;;;;;;2.03;1.60;;;22.00;49.00;;;;;;6108735;23;20462;-88
2021/05/20 13:38:29;;;;;;;2.20;0.67;;;23.00;45.40;;;;;;5876672;24;20404;-89
2021/05/20 13:44:14;;;;;;;1.13;0.63;;;19.80;50.70;;;;;;6038729;23;20520;-89
2021/05/20 13:47:07;;;;;;;0.97;0.73;;;19.40;53.00;;;;;;6162875;23;20424;-89
2021/05/20 13:50:38;;;;;;;1.50;1.20;;;19.10;53.70;;;;;;6152407;23;20436;-88
2021/05/20 13:53:35;;;;;;;1.67;1.00;;;18.70;55.50;;;;;;6075729;23;20422;-89
2021/05/20 13:56:57;;;;;;;2.53;1.50;;;18.50;56.40;;;;;;6172150;23;20403;-89
2021/05/20 13:59:48;;;;;;;2.97;2.27;;;18.60;57.30;;;;;;6170663;23;20479;-88
2021/05/20 14:09:22;;;;;;;2.07;0.77;;;18.80;65.60;;;;;;6125335;23;20429;-88
2021/05/20 14:11:54;;;;;;;5.43;1.03;;;19.00;65.00;;;;;;6158636;23;20403;-87
2021/05/20 14:17:56;;;;;;;1.63;0.80;;;19.70;59.80;;;;;;6164840;23;20443;-87
2021/05/20 14:21:05;;;;;;;1.83;1.03;;;19.90;59.30;;;;;;6155823;23;20447;-88
2021/05/20 14:23:49;;;;;;;2.23;1.00;;;20.00;58.80;;;;;;6088175;23;20444;-88
2021/05/20 14:26:50;;;;;;;2.40;1.10;;;19.90;57.50;;;;;;6170033;23;20387;-87
2021/05/20 14:29:18;;;;;;;2.43;1.20;;;19.80;58.10;;;;;;6171681;23;20428;-89
2021/05/20 14:31:44;;;;;;;0.90;0.70;;;19.90;61.20;;;;;;6179072;23;20424;-89
2021/05/20 14:34:15;;;;;;;1.77;1.00;;;20.00;58.60;;;;;;6168303;23;20759;-88
2021/05/20 14:36:52;;;;;;;1.80;1.30;;;20.20;58.70;;;;;;6173666;23;20980;-89
2021/05/20 14:39:38;;;;;;;3.17;1.63;;;20.50;58.40;;;;;;6174104;23;20433;-89
2021/05/20 14:42:11;;;;;;;2.17;1.30;;;21.10;57.60;;;;;;6164079;23;20447;-87
2021/05/20 14:44:38;;;;;;;1.67;1.40;;;21.20;57.20;;;;;;6177688;23;20404;-88
2021/05/20 14:47:07;;;;;;;1.60;0.90;;;21.20;56.20;;;;;;6168273;23;20418;-88
2021/05/20 14:49:39;;;;;;;1.80;1.13;;;21.30;56.60;;;;;;6165476;23;20431;-87
2021/05/20 14:55:05;;;;;;;1.33;1.20;;;20.90;56.70;;;;;;6157979;23;20405;-88
2021/05/20 15:06:05;;;;;;;1.43;0.97;;;19.40;58.10;;;;;;6193684;23;20411;-86
2021/05/20 15:08:33;;;;;;;1.93;1.17;;;19.60;58.50;;;;;;6192444;23;20468;-86
2021/05/20 15:11:07;;;;;;;1.47;1.23;;;19.50;58.70;;;;;;6195745;23;20780;-86
2021/05/20 15:13:46;;;;;;;4.77;1.40;;;19.60;58.80;;;;;;6202471;23;20501;-85
2021/05/20 15:16:23;;;;;;;2.17;1.10;;;19.50;59.20;;;;;;6205371;23;20401;-86
2021/05/20 15:18:56;;;;;;;4.20;1.47;;;19.50;59.00;;;;;;6187460;23;20428;-86
2021/05/20 15:21:28;;;;;;;1.00;0.90;;;19.50;59.30;;;;;;6187215;23;21125;-86
2021/05/20 15:23:59;;;;;;;1.53;0.90;;;19.60;58.90;;;;;;6194899;23;20465;-86
2021/05/20 15:26:32;;;;;;;1.40;1.30;;;19.60;58.50;;;;;;6187932;23;20395;-86
2021/05/20 15:29:04;;;;;;;2.50;1.17;;;19.70;58.40;;;;;;6185259;23;21021;-86
2021/05/20 15:31:30;;;;;;;1.30;1.20;;;19.90;58.20;;;;;;6193630;23;20392;-85
2021/05/20 15:33:58;;;;;;;2.00;1.27;;;19.90;58.00;;;;;;6206040;23;20434;-85
2021/05/20 15:36:27;;;;;;;1.27;1.17;;;19.90;58.10;;;;;;6188290;23;20482;-87
2021/05/20 15:38:58;;;;;;;1.60;1.40;;;19.90;58.50;;;;;;6192715;23;20398;-85
2021/05/20 15:41:32;;;;;;;1.63;1.00;;;20.00;58.60;;;;;;6189599;23;20439;-88
2021/05/20 15:44:29;;;;;;;1.57;1.43;;;20.10;58.10;;;;;;6188746;23;20483;-87
2021/05/20 15:47:01;;;;;;;1.33;1.20;;;20.10;57.60;;;;;;6186963;23;20882;-87
2021/05/20 15:52:50;;;;;;;1.40;1.10;;;19.80;58.40;;;;;;6101316;23;20421;-84
2021/05/20 15:55:19;;;;;;;1.10;1.00;;;19.80;58.70;;;;;;6195920;23;20411;-84
2021/05/20 15:57:46;;;;;;;1.23;1.13;;;19.80;58.50;;;;;;6194812;23;20392;-84
2021/05/20 16:00:14;;;;;;;1.90;1.10;;;19.60;57.60;;;;;;6195449;23;20444;-84
2021/05/20 16:02:40;;;;;;;1.73;1.37;;;19.70;58.20;;;;;;6201412;23;20443;-84
2021/05/20 16:05:10;;;;;;;3.43;1.10;;;19.80;57.90;;;;;;6198551;23;20440;-84
2021/05/20 16:07:42;;;;;;;1.20;1.00;;;19.60;57.10;;;;;;6197515;23;20406;-83
2021/05/20 16:10:17;;;;;;;2.80;2.10;;;19.40;57.70;;;;;;6196172;23;20394;-84
2021/05/20 16:12:59;;;;;;;3.83;3.33;;;19.40;59.10;;;;;;6194012;23;20399;-83
2021/05/20 16:15:28;;;;;;;2.27;1.33;;;19.40;58.30;;;;;;6193601;23;20879;-83
2021/05/20 16:17:55;;;;;;;1.47;1.37;;;19.30;55.60;;;;;;6191690;23;20856;-82
2021/05/20 16:40:08;;;;;;;1.73;1.13;;;18.20;57.40;;;;;;6200728;23;20422;-87
2021/05/20 16:43:18;;;;;;;;;;;;;;;;;;;;;
2021/05/20 16:46:13;;;;;;;1.90;1.20;;;18.10;56.30;;;;;;6176204;23;20396;-86
2021/05/20 16:48:45;;;;;;;1.17;1.00;;;18.00;55.70;;;;;;6176675;23;20418;-87
2021/05/20 16:51:23;;;;;;;2.60;1.63;;;17.90;56.30;;;;;;6181578;23;20397;-86
2021/05/20 16:54:15;;;;;;;1.83;1.20;;;17.80;57.20;;;;;;6183415;23;20440;-86
2021/05/20 16:56:48;;;;;;;7.77;5.03;;;17.90;57.60;;;;;;6183486;23;20383;-85
2021/05/20 16:59:14;;;;;;;2.93;2.40;;;18.00;57.00;;;;;;6182849;23;20391;-86
2021/05/20 17:01:44;;;;;;;1.77;1.30;;;18.00;56.70;;;;;;6179452;23;20431;-84
2021/05/20 17:04:12;;;;;;;1.40;1.00;;;17.90;56.80;;;;;;6178484;23;20466;-86
2021/05/20 17:06:38;;;;;;;1.70;1.30;;;17.90;56.90;;;;;;6160872;23;20402;-85
2021/05/20 17:09:07;;;;;;;2.03;1.43;;;17.80;57.00;;;;;;6168456;23;20417;-87
2021/05/20 17:11:33;;;;;;;5.77;2.97;;;17.90;57.60;;;;;;6165143;23;20400;-86
2021/05/20 17:14:00;;;;;;;1.13;1.00;;;17.80;57.50;;;;;;6168446;23;20445;-86
2021/05/20 17:16:27;;;;;;;1.17;0.90;;;17.80;57.30;;;;;;6167100;23;20392;-86
2021/05/20 17:18:58;;;;;;;3.70;2.60;;;17.70;58.00;;;;;;6163446;23;20405;-86
2021/05/20 17:21:25;;;;;;;3.17;2.13;;;17.70;58.50;;;;;;6165602;23;20430;-87
2021/05/20 17:23:51;;;;;;;2.53;2.33;;;17.80;59.10;;;;;;6161890;23;20419;-87
2021/05/20 17:26:18;;;;;;;1.30;1.20;;;17.80;58.80;;;;;;6156185;23;21019;-87
2021/05/20 17:28:45;;;;;;;2.20;1.50;;;17.80;58.20;;;;;;6158434;23;20427;-87
2021/05/20 17:31:13;;;;;;;1.37;1.20;;;17.70;58.00;;;;;;6157178;23;20599;-87
2021/05/20 17:33:39;;;;;;;1.27;1.03;;;17.60;58.20;;;;;;6167401;23;20431;-87
2021/05/20 17:36:12;;;;;;;1.50;1.23;;;17.60;58.20;;;;;;6175015;23;20438;-88
2021/05/20 17:38:42;;;;;;;1.80;1.40;;;17.50;58.30;;;;;;6160501;23;20497;-87
2021/05/20 17:41:10;;;;;;;10.60;8.30;;;17.40;58.40;;;;;;6157549;23;20431;-87
2021/05/20 17:43:36;;;;;;;6.27;5.00;;;17.40;59.10;;;;;;6155947;23;20443;-87
2021/05/20 17:46:03;;;;;;;6.83;4.30;;;17.50;59.50;;;;;;6157073;23;20854;-87
2021/05/20 17:48:35;;;;;;;1.93;1.50;;;17.50;59.10;;;;;;6158439;23;20411;-86
2021/05/20 17:51:06;;;;;;;4.70;2.30;;;17.40;58.80;;;;;;6159310;23;20399;-87
2021/05/20 17:53:40;;;;;;;7.50;5.10;;;17.40;59.20;;;;;;6157914;23;20453;-87
2021/05/20 17:56:13;;;;;;;11.37;7.70;;;17.40;59.50;;;;;;6170502;23;20424;-88
2021/05/20 17:58:43;;;;;;;6.93;5.67;;;17.40;59.90;;;;;;6166124;23;20445;-87
2021/05/20 18:01:10;;;;;;;7.83;5.20;;;17.40;60.10;;;;;;6157479;23;20467;-87
2021/05/20 18:03:37;;;;;;;3.47;3.17;;;17.40;60.10;;;;;;6157069;23;20768;-88